createdAt,value
2019-01-19T00:01:52.910Z,99.90
2019-01-19T00:04:32.222Z,99.90
2019-01-19T00:08:11.992Z,99.90
2019-01-19T00:10:51.164Z,99.90
2019-01-19T00:13:50.663Z,99.90
2019-01-19T00:16:28.548Z,99.90
2019-01-19T00:19:07.064Z,99.90
2019-01-19T00:21:53.419Z,99.90
2019-01-19T00:25:19.243Z,99.90
2019-01-19T00:27:58.182Z,99.90
2019-01-19T00:31:03.582Z,99.90
2019-01-19T00:33:43.382Z,99.90
2019-01-19T00:36:23.578Z,99.90
2019-01-19T00:40:05.243Z,99.90
2019-01-19T00:42:43.656Z,99.90
2019-01-19T00:45:42.469Z,99.90
2019-01-19T00:48:20.209Z,99.90
2019-01-19T00:51:10.712Z,99.90
2019-01-19T00:53:45.447Z,99.90
2019-01-19T00:56:25.470Z,99.90
2019-01-19T00:59:01.572Z,99.90
2019-01-19T01:01:44.479Z,99.90
2019-01-19T01:05:25.444Z,99.90
2019-01-19T01:10:12.526Z,99.90
2019-01-19T01:14:55.475Z,99.90
2019-01-19T01:17:33.009Z,99.90
2019-01-19T01:21:22.017Z,99.90
2019-01-19T01:23:59.310Z,99.90
2019-01-19T01:26:40.396Z,99.90
2019-01-19T01:31:19.685Z,99.90
2019-01-19T01:34:03.788Z,99.90
2019-01-19T01:38:43.677Z,99.90
2019-01-19T01:41:37.326Z,99.90
2019-01-19T01:44:18.276Z,99.90
2019-01-19T01:47:59.047Z,99.90
2019-01-19T01:51:33.391Z,99.90
2019-01-19T01:55:14.452Z,99.90
2019-01-19T01:57:56.611Z,99.90
2019-01-19T02:00:43.157Z,99.90
2019-01-19T02:03:22.692Z,99.90
2019-01-19T02:06:01.147Z,99.90
2019-01-19T02:08:36.484Z,99.90
2019-01-19T02:11:19.880Z,99.90
2019-01-19T02:13:59.523Z,99.90
2019-01-19T02:16:41.254Z,99.90
2019-01-19T02:19:32.987Z,99.90
2019-01-19T02:22:25.683Z,99.90
2019-01-19T02:27:09.804Z,99.90
2019-01-19T02:30:05.256Z,99.90
2019-01-19T02:32:47.822Z,99.90
2019-01-19T02:35:58.842Z,99.90
2019-01-19T02:39:10.705Z,99.90
2019-01-19T02:41:51.760Z,99.90
2019-01-19T02:44:31.075Z,99.90
2019-01-19T02:47:10.996Z,99.90
2019-01-19T02:49:52.377Z,99.90
2019-01-19T02:52:41.470Z,99.90
2019-01-19T02:55:22.812Z,99.90
2019-01-19T02:58:35.460Z,99.90
2019-01-19T03:01:14.975Z,99.90
2019-01-19T03:03:51.548Z,99.90
2019-01-19T03:06:32.520Z,99.90
2019-01-19T03:09:12.160Z,99.90
2019-01-19T03:11:58.400Z,99.90
2019-01-19T03:14:55.408Z,99.90
2019-01-19T03:17:40.056Z,99.90
2019-01-19T03:20:23.954Z,99.90
2019-01-19T03:23:16.142Z,99.90
2019-01-19T03:25:58.035Z,99.90
2019-01-19T03:28:36.658Z,99.90
2019-01-19T03:31:18.143Z,99.90
2019-01-19T03:34:00.585Z,99.90
2019-01-19T03:36:45.456Z,99.90
2019-01-19T03:39:42.559Z,99.90
2019-01-19T03:42:36.413Z,99.90
2019-01-19T03:45:17.668Z,99.90
2019-01-19T03:47:54.855Z,99.90
2019-01-19T03:50:51.026Z,99.90
2019-01-19T03:53:28.607Z,99.90
2019-01-19T03:57:21.270Z,99.90
2019-01-19T04:00:02.771Z,99.90
2019-01-19T04:02:43.984Z,99.90
2019-01-19T04:07:38.641Z,99.90
2019-01-19T04:11:19.123Z,99.90
2019-01-19T04:14:00.653Z,99.90
2019-01-19T04:17:42.292Z,99.90
2019-01-19T04:20:29.911Z,99.90
2019-01-19T04:23:01.859Z,99.90
2019-01-19T04:25:41.214Z,99.90
2019-01-19T04:28:09.629Z,99.90
2019-01-19T04:30:38.021Z,99.90
2019-01-19T04:33:06.814Z,99.90
2019-01-19T04:35:35.181Z,99.90
2019-01-19T04:38:03.545Z,99.90
2019-01-19T04:40:32.274Z,99.90
2019-01-19T04:43:00.615Z,99.90
2019-01-19T04:45:28.964Z,99.90
2019-01-19T04:47:57.843Z,99.90
2019-01-19T04:50:26.432Z,99.90
2019-01-19T04:52:54.913Z,99.90
2019-01-19T04:55:24.385Z,99.90
2019-01-19T04:57:52.731Z,99.90
2019-01-19T05:00:21.103Z,99.90
2019-01-19T05:02:49.811Z,99.90
2019-01-19T05:05:18.513Z,99.90
2019-01-19T05:07:47.100Z,99.90
2019-01-19T05:10:15.699Z,99.90
2019-01-19T05:12:44.049Z,99.90
2019-01-19T05:15:15.337Z,99.90
2019-01-19T05:17:44.211Z,99.90
2019-01-19T05:20:12.607Z,99.90
2019-01-19T05:22:40.984Z,99.90
2019-01-19T05:25:09.855Z,99.90
2019-01-19T05:27:38.194Z,99.90
2019-01-19T05:30:10.559Z,99.90
2019-01-19T05:32:38.929Z,99.90
2019-01-19T05:35:07.466Z,99.90
2019-01-19T05:37:36.304Z,99.90
2019-01-19T05:40:05.127Z,99.90
2019-01-19T05:42:33.475Z,99.90
2019-01-19T05:45:02.202Z,99.90
2019-01-19T05:47:30.701Z,99.90
2019-01-19T05:49:59.055Z,99.90
2019-01-19T05:52:27.818Z,99.90
2019-01-19T05:54:56.159Z,99.90
2019-01-19T05:57:24.816Z,99.90
2019-01-19T05:59:53.696Z,99.90
2019-01-19T06:02:22.507Z,99.90
2019-01-19T06:04:50.858Z,99.90
2019-01-19T06:07:19.605Z,99.90
2019-01-19T06:09:48.143Z,99.90
2019-01-19T06:12:16.616Z,99.90
2019-01-19T06:14:45.208Z,99.90
2019-01-19T06:17:13.753Z,99.90
2019-01-19T06:19:42.271Z,99.90
2019-01-19T06:22:10.936Z,99.90
2019-01-19T06:24:39.341Z,99.90
2019-01-19T06:27:07.667Z,99.90
2019-01-19T06:29:36.531Z,99.90
2019-01-19T06:32:05.373Z,99.90
2019-01-19T06:34:33.695Z,99.90
2019-01-19T06:37:04.277Z,99.90
2019-01-19T06:39:30.840Z,99.90
2019-01-19T06:41:59.186Z,99.90
2019-01-19T06:44:27.722Z,99.90
2019-01-19T06:46:56.090Z,99.90
2019-01-19T06:49:24.599Z,99.90
2019-01-19T06:51:53.618Z,99.90
2019-01-19T06:54:22.836Z,99.90
2019-01-19T06:56:51.234Z,99.90
2019-01-19T06:59:20.755Z,99.90
2019-01-19T07:01:49.277Z,99.90
2019-01-19T07:04:17.808Z,99.90
2019-01-19T07:06:47.879Z,99.90
2019-01-19T07:09:16.527Z,99.90
2019-01-19T07:11:45.147Z,99.90
2019-01-19T07:14:13.929Z,99.90
2019-01-19T07:16:42.753Z,99.90
2019-01-19T07:19:11.078Z,99.90
2019-01-19T07:21:40.215Z,99.90
2019-01-19T07:24:08.873Z,99.90
2019-01-19T07:26:37.374Z,99.90
2019-01-19T07:29:05.891Z,99.90
2019-01-19T07:31:34.262Z,99.90
2019-01-19T07:34:02.586Z,99.90
2019-01-19T07:36:31.473Z,99.90
2019-01-19T07:38:59.824Z,99.90
2019-01-19T07:41:28.110Z,99.90
2019-01-19T07:43:56.928Z,99.90
2019-01-19T07:46:25.562Z,99.90
2019-01-19T07:48:53.924Z,99.90
2019-01-19T07:51:22.669Z,99.90
2019-01-19T07:53:51.132Z,99.90
2019-01-19T07:56:19.464Z,99.90
2019-01-19T07:58:48.256Z,99.90
2019-01-19T08:01:16.779Z,99.90
2019-01-19T08:03:45.082Z,99.90
2019-01-19T08:06:13.854Z,99.90
2019-01-19T08:08:42.241Z,99.90
2019-01-19T08:11:11.400Z,99.90
2019-01-19T08:13:39.016Z,99.90
2019-01-19T08:16:07.615Z,99.90
2019-01-19T08:18:36.050Z,99.90
2019-01-19T08:21:04.597Z,99.90
2019-01-19T08:23:32.960Z,99.90
2019-01-19T08:26:01.281Z,99.90
2019-01-19T08:28:30.339Z,99.90
2019-01-19T08:30:58.716Z,99.90
2019-01-19T08:33:27.236Z,99.90
2019-01-19T08:35:55.903Z,99.90
2019-01-19T08:38:24.280Z,99.90
2019-01-19T08:40:52.627Z,99.90
2019-01-19T08:43:28.179Z,99.90
2019-01-19T08:45:56.509Z,99.90
2019-01-19T08:48:25.169Z,99.90
2019-01-19T08:50:53.865Z,99.90
2019-01-19T08:53:22.513Z,99.90
2019-01-19T08:55:51.072Z,99.90
2019-01-19T08:58:20.008Z,99.90
2019-01-19T09:00:48.583Z,99.90
2019-01-19T09:03:16.941Z,99.90
2019-01-19T09:05:45.667Z,99.90
2019-01-19T09:08:13.994Z,99.90
2019-01-19T09:10:42.386Z,99.90
2019-01-19T09:13:11.285Z,99.90
2019-01-19T09:15:39.792Z,99.90
2019-01-19T09:18:08.476Z,99.90
2019-01-19T09:20:37.017Z,99.90
2019-01-19T09:23:09.839Z,99.90
2019-01-19T09:25:38.524Z,99.90
2019-01-19T09:28:06.934Z,99.90
2019-01-19T09:30:35.310Z,99.90
2019-01-19T09:33:04.137Z,99.90
2019-01-19T09:35:32.546Z,99.90
2019-01-19T09:38:00.980Z,99.90
2019-01-19T09:40:29.709Z,99.90
2019-01-19T09:42:58.167Z,99.90
2019-01-19T09:45:26.644Z,99.90
2019-01-19T09:47:55.055Z,99.90
2019-01-19T09:50:23.528Z,99.90
2019-01-19T09:52:51.887Z,99.90
2019-01-19T09:55:20.899Z,99.90
2019-01-19T09:57:49.218Z,99.90
2019-01-19T10:00:17.962Z,99.90
2019-01-19T10:02:46.954Z,99.90
2019-01-19T10:05:18.675Z,99.90
2019-01-19T10:07:48.701Z,99.90
2019-01-19T10:10:15.971Z,99.90
2019-01-19T10:12:44.455Z,99.90
2019-01-19T10:15:14.142Z,99.90
2019-01-19T10:17:42.465Z,99.90
2019-01-19T10:20:13.685Z,99.90
2019-01-19T10:22:42.634Z,99.90
2019-01-19T10:25:11.825Z,99.90
2019-01-19T10:27:40.116Z,99.90
2019-01-19T10:30:12.482Z,99.90
2019-01-19T10:32:41.042Z,99.90
2019-01-19T10:35:10.627Z,99.90
2019-01-19T10:37:39.634Z,99.90
2019-01-19T10:40:09.483Z,99.90
2019-01-19T10:42:37.824Z,99.90
2019-01-19T10:45:07.969Z,99.90
2019-01-19T10:47:36.361Z,99.90
2019-01-19T10:50:05.498Z,99.90
2019-01-19T10:52:34.171Z,99.90
2019-01-19T10:55:02.525Z,99.90
2019-01-19T10:57:30.814Z,99.90
2019-01-19T10:59:59.606Z,99.90
2019-01-19T11:02:28.329Z,99.90
2019-01-19T11:04:56.705Z,99.90
2019-01-19T11:07:25.358Z,99.90
2019-01-19T11:09:53.716Z,99.90
2019-01-19T11:12:22.102Z,99.90
2019-01-19T11:14:51.405Z,99.90
2019-01-19T11:17:19.867Z,99.90
2019-01-19T11:19:48.763Z,99.90
2019-01-19T11:22:17.768Z,99.90
2019-01-19T11:24:46.092Z,99.90
2019-01-19T11:27:14.464Z,99.90
2019-01-19T11:29:43.059Z,99.90
2019-01-19T11:32:11.531Z,99.90
2019-01-19T11:34:40.082Z,99.90
2019-01-19T11:37:08.866Z,99.90
2019-01-19T11:39:37.271Z,99.90
2019-01-19T11:42:06.007Z,99.90
2019-01-19T11:44:34.860Z,99.90
2019-01-19T11:47:03.694Z,99.90
2019-01-19T11:49:32.394Z,99.90
2019-01-19T11:52:00.925Z,99.90
2019-01-19T11:54:29.274Z,99.90
2019-01-19T11:56:57.819Z,99.90
2019-01-19T11:59:26.812Z,99.90
2019-01-19T12:01:55.110Z,99.90
2019-01-19T12:04:23.469Z,99.90
2019-01-19T12:06:52.252Z,99.90
2019-01-19T12:09:20.576Z,99.90
2019-01-19T12:11:48.901Z,99.90
2019-01-19T12:14:17.691Z,99.90
2019-01-19T12:16:46.273Z,99.90
2019-01-19T12:19:14.629Z,99.90
2019-01-19T12:21:43.438Z,99.90
2019-01-19T12:24:12.127Z,99.90
2019-01-19T12:26:40.463Z,99.90
2019-01-19T12:29:13.890Z,99.90
2019-01-19T12:31:42.476Z,99.90
2019-01-19T12:34:10.830Z,99.90
2019-01-19T12:36:39.410Z,99.90
2019-01-19T12:39:07.832Z,99.90
2019-01-19T12:41:36.884Z,99.90
2019-01-19T12:44:06.066Z,99.90
2019-01-19T12:46:34.789Z,99.90
2019-01-19T12:49:03.117Z,99.90
2019-01-19T12:51:31.853Z,99.90
2019-01-19T12:54:00.495Z,99.90
2019-01-19T12:56:28.839Z,99.90
2019-01-19T12:58:57.687Z,99.90
2019-01-19T13:01:26.032Z,99.90
2019-01-19T13:03:54.418Z,99.90
2019-01-19T13:06:30.995Z,99.90
2019-01-19T13:09:00.258Z,99.90
2019-01-19T13:11:40.174Z,99.90
2019-01-19T13:14:08.618Z,99.90
2019-01-19T13:16:48.475Z,99.90
2019-01-19T13:19:30.806Z,99.90
2019-01-19T13:22:24.838Z,99.90
2019-01-19T13:26:34.976Z,99.90
2019-01-19T13:29:45.784Z,99.90
2019-01-19T13:34:28.148Z,99.90
2019-01-19T13:37:25.189Z,99.90
2019-01-19T13:40:13.085Z,99.90
2019-01-19T13:43:06.134Z,99.90
2019-01-19T13:45:51.317Z,99.90
2019-01-19T13:48:34.166Z,99.90
2019-01-19T13:51:12.371Z,99.90
2019-01-19T13:53:58.139Z,99.90
2019-01-19T13:57:45.934Z,99.90
2019-01-19T14:02:34.209Z,99.90
2019-01-19T14:05:09.924Z,99.90
2019-01-19T14:08:07.670Z,99.90
2019-01-19T14:10:55.445Z,99.90
2019-01-19T14:13:35.603Z,99.90
2019-01-19T14:16:22.177Z,99.90
2019-01-19T14:19:30.737Z,99.90
2019-01-19T14:22:57.952Z,99.90
2019-01-19T14:28:09.870Z,99.90
2019-01-19T14:30:54.855Z,99.90
2019-01-19T14:34:03.636Z,99.90
2019-01-19T14:36:50.494Z,99.90
2019-01-19T14:39:30.164Z,99.90
2019-01-19T14:42:22.934Z,99.90
2019-01-19T14:45:18.113Z,99.90
2019-01-19T14:48:00.146Z,99.90
2019-01-19T14:54:47.339Z,99.90
2019-01-19T14:57:28.084Z,99.90
2019-01-19T15:00:17.215Z,99.90
2019-01-19T15:03:27.831Z,99.90
2019-01-19T15:06:12.324Z,99.90
2019-01-19T15:08:52.759Z,99.90
2019-01-19T15:11:41.417Z,99.90
2019-01-19T15:14:21.181Z,99.90
2019-01-19T15:19:01.874Z,99.90
2019-01-19T15:21:43.470Z,99.90
2019-01-19T15:24:32.248Z,99.90
2019-01-19T15:29:13.064Z,99.90
2019-01-19T15:31:58.680Z,99.90
2019-01-19T15:36:55.352Z,99.90
2019-01-19T15:39:38.590Z,99.90
2019-01-19T15:42:25.315Z,99.90
2019-01-19T15:49:11.179Z,99.90
2019-01-19T15:51:53.614Z,99.90
2019-01-19T15:54:30.055Z,99.90
2019-01-19T15:57:13.471Z,99.90
2019-01-19T16:01:57.371Z,99.90
2019-01-19T16:06:57.064Z,99.90
2019-01-19T16:11:49.167Z,99.90
2019-01-19T16:14:34.584Z,99.90
2019-01-19T16:17:34.909Z,99.90
2019-01-19T16:20:14.662Z,99.90
2019-01-19T16:23:02.557Z,99.90
2019-01-19T16:26:54.137Z,99.90
2019-01-19T16:29:50.197Z,99.90
2019-01-19T16:35:36.255Z,99.90
2019-01-19T16:40:17.483Z,99.90
2019-01-19T16:45:11.029Z,99.90
2019-01-19T16:49:59.222Z,99.90
2019-01-19T16:52:42.915Z,99.90
2019-01-19T16:55:22.804Z,99.90
2019-01-19T16:58:02.914Z,99.90
2019-01-19T17:00:42.652Z,99.90
2019-01-19T17:03:22.667Z,99.90
2019-01-19T17:06:01.780Z,99.90
2019-01-19T17:08:45.223Z,99.90
2019-01-19T17:11:35.486Z,99.90
2019-01-19T17:14:24.074Z,99.90
2019-01-19T17:17:05.724Z,99.90
2019-01-19T17:19:44.623Z,99.90
2019-01-19T17:22:40.958Z,99.90
2019-01-19T17:25:26.540Z,99.90
2019-01-19T17:28:37.104Z,99.90
2019-01-19T17:31:19.207Z,99.90
2019-01-19T17:34:03.062Z,99.90
2019-01-19T17:39:14.294Z,99.90
2019-01-19T17:43:55.647Z,99.90
2019-01-19T17:47:08.271Z,99.90
2019-01-19T17:49:54.878Z,99.90
2019-01-19T17:52:37.770Z,99.90
2019-01-19T17:55:15.975Z,99.90
2019-01-19T17:57:58.180Z,99.90
2019-01-19T18:02:39.194Z,99.90
2019-01-19T18:05:22.086Z,99.90
2019-01-19T18:08:01.802Z,99.90
2019-01-19T18:10:43.256Z,99.90
2019-01-19T18:13:27.073Z,99.90
2019-01-19T18:16:16.283Z,99.90
2019-01-19T18:18:55.856Z,99.90
2019-01-19T18:21:36.164Z,99.90
2019-01-19T18:24:25.797Z,99.90
2019-01-19T18:29:03.500Z,99.90
2019-01-19T18:31:46.222Z,99.90
2019-01-19T18:34:30.708Z,99.90
2019-01-19T18:39:13.757Z,99.90
2019-01-19T18:42:08.247Z,99.90
2019-01-19T18:44:47.956Z,99.90
2019-01-19T18:47:29.584Z,99.90
2019-01-19T18:50:40.317Z,99.90
2019-01-19T18:53:26.864Z,99.90
2019-01-19T18:56:11.872Z,99.90
2019-01-19T18:59:57.300Z,99.90
2019-01-19T19:02:35.773Z,99.90
2019-01-19T19:05:14.589Z,99.90
2019-01-19T19:07:53.424Z,99.90
2019-01-19T19:10:35.061Z,99.90
2019-01-19T19:13:46.348Z,99.90
2019-01-19T19:16:54.282Z,99.90
2019-01-19T19:19:49.078Z,99.90
2019-01-19T19:22:40.989Z,99.90
2019-01-19T19:25:20.404Z,99.90
2019-01-19T19:27:59.372Z,99.90
2019-01-19T19:30:38.735Z,99.90
2019-01-19T19:34:22.142Z,99.90
2019-01-19T19:36:55.501Z,99.90
2019-01-19T19:39:44.085Z,99.90
2019-01-19T19:42:25.149Z,99.90
2019-01-19T19:45:35.023Z,99.90
2019-01-19T19:48:18.541Z,99.90
2019-01-19T19:51:02.689Z,99.90
2019-01-19T19:53:31.219Z,99.90
2019-01-19T19:55:58.492Z,99.90
2019-01-19T19:58:27.208Z,99.90
2019-01-19T20:00:55.543Z,99.90
2019-01-19T20:03:24.172Z,99.90
2019-01-19T20:05:53.264Z,99.90
2019-01-19T20:08:21.641Z,99.90
2019-01-19T20:10:50.242Z,99.90
2019-01-19T20:13:19.010Z,99.90
2019-01-19T20:15:47.349Z,99.90
2019-01-19T20:18:15.768Z,99.90
2019-01-19T20:20:44.760Z,99.90
2019-01-19T20:23:13.113Z,99.90
2019-01-19T20:25:41.818Z,99.90
2019-01-19T20:28:10.503Z,99.90
2019-01-19T20:30:38.885Z,99.90
2019-01-19T20:33:07.404Z,99.90
2019-01-19T20:35:36.097Z,99.90
2019-01-19T20:38:04.439Z,99.40
2019-01-19T20:40:32.801Z,99.10
2019-01-19T20:43:01.241Z,98.90
2019-01-19T20:45:29.552Z,99.20
2019-01-19T20:47:58.106Z,98.30
2019-01-19T20:50:26.827Z,98.30
2019-01-19T20:52:55.204Z,98.30
2019-01-19T20:55:23.553Z,97.70
2019-01-19T20:57:52.573Z,97.70
2019-01-19T21:00:21.006Z,97.70
2019-01-19T21:02:49.635Z,97.30
2019-01-19T21:05:18.104Z,97.50
2019-01-19T21:07:46.389Z,97.00
2019-01-19T21:10:14.738Z,97.00
2019-01-19T21:12:43.456Z,96.90
2019-01-19T21:15:12.463Z,97.00
2019-01-19T21:17:40.756Z,96.30
2019-01-19T21:20:10.436Z,96.10
2019-01-19T21:22:38.767Z,96.10
2019-01-19T21:25:08.270Z,96.30
2019-01-19T21:27:37.098Z,96.50
2019-01-19T21:30:06.539Z,96.60
2019-01-19T21:32:35.027Z,96.50
2019-01-19T21:35:04.080Z,96.60
2019-01-19T21:37:32.411Z,96.60
2019-01-19T21:40:00.826Z,96.40
2019-01-19T21:42:29.266Z,96.40
2019-01-19T21:44:57.659Z,96.50
2019-01-19T21:47:26.088Z,97.00
2019-01-19T21:49:54.586Z,96.90
2019-01-19T21:52:22.899Z,96.80
2019-01-19T21:54:51.401Z,96.90
2019-01-19T21:57:19.811Z,96.90
2019-01-19T21:59:48.145Z,97.30
2019-01-19T22:02:16.503Z,97.60
2019-01-19T22:04:45.238Z,97.80
2019-01-19T22:07:14.167Z,97.90
2019-01-19T22:09:42.485Z,98.10
2019-01-19T22:12:11.272Z,98.20
2019-01-19T22:14:39.654Z,98.40
2019-01-19T22:17:08.009Z,98.60
2019-01-19T22:19:36.712Z,98.70
2019-01-19T22:22:05.504Z,98.60
2019-01-19T22:24:33.841Z,98.80
2019-01-19T22:27:02.315Z,99.00
2019-01-19T22:29:30.618Z,99.20
2019-01-19T22:31:59.023Z,99.30
2019-01-19T22:34:27.902Z,99.60
2019-01-19T22:36:56.249Z,99.30
2019-01-19T22:39:25.189Z,99.40
2019-01-19T22:41:53.953Z,99.30
2019-01-19T22:44:22.296Z,99.30
2019-01-19T22:46:50.599Z,99.40
2019-01-19T22:49:19.397Z,99.60
2019-01-19T22:51:47.772Z,99.60
2019-01-19T22:54:16.341Z,99.30
2019-01-19T22:56:45.139Z,99.20
2019-01-19T22:59:13.518Z,99.50
2019-01-19T23:01:47.282Z,99.70
2019-01-19T23:04:15.793Z,99.30
2019-01-19T23:06:44.181Z,99.40
2019-01-19T23:09:13.010Z,99.40
2019-01-19T23:11:41.313Z,99.30
2019-01-19T23:14:11.545Z,99.20
2019-01-19T23:16:40.761Z,99.30
2019-01-19T23:19:09.146Z,99.40
2019-01-19T23:21:37.488Z,99.50
2019-01-19T23:24:05.937Z,99.30
2019-01-19T23:26:34.261Z,99.50
2019-01-19T23:29:02.657Z,99.00
2019-01-19T23:31:31.642Z,99.00
2019-01-19T23:34:00.024Z,98.70
2019-01-19T23:36:28.598Z,98.90
2019-01-19T23:38:57.391Z,98.70
2019-01-19T23:41:25.664Z,98.80
2019-01-19T23:43:54.061Z,98.60
2019-01-19T23:46:22.528Z,98.50
2019-01-19T23:48:50.899Z,98.50
2019-01-19T23:51:19.258Z,99.00
2019-01-19T23:53:47.965Z,98.80
2019-01-19T23:56:16.392Z,99.00
2019-01-19T23:58:44.917Z,99.10
